EDDM Airport Information

Runway Information
Runway 08L Length 13123 ft width 197 ft
Elevation 1467 ft Threshold 0 ft Heading 83
Runway 26R Length 13123 ft Width 197 ft
Elevation 1449 ft Threshold 0 ft Heading 263
Runway 08R Length 13123 ft width 197 ft
Elevation 1486 ft Threshold 0 ft Heading 83
Runway 26L Length 13123 ft Width 197 ft
Elevation 1470 ft Threshold 0 ft Heading 263
Airport Frequencies
Type ACC Name RADAR Frequency 123.9 MHZ
Type ARR Name ARR Frequency 120.775 MHZ
Type ATIS Name ATIS Frequency 123.125 MHZ
Type CLD Name CLNC DEL Frequency 121.725 MHZ
Type DIR Name DIRECTOR Frequency 118.825 MHZ
Type GND Name GND Frequency 119.4 MHZ
Type INFO Name INFO Frequency 120.65 MHZ
Type RDR Name LCL RADAR Frequency 131.225 MHZ
Type RMP Name Apron 2 Frequency 121.7 MHZ
Type RMP Name Apron 1 Frequency 121.775 MHZ
Type RMP Name Aron 3 Frequency 121.925 MHZ
Type TWR Name TWR Frequency 118.7 MHZ
Airport Navaids
Type DME Name Munchen Frequency 116000 KHZ
Type DME Name Munchen Frequency 108600 KHZ
Type NDB Name Munchen Frequency 369 KHZ
Type NDB Name Munchen Frequency 338 KHZ
Type NDB Name Munchen Frequency 358 KHZ
Type NDB Name Munchen Frequency 400 KHZ
Type VOR-DME Name Munchen Frequency 112300 KHZ
Airport Weather Information & NOTAM

Deprecated: The each() function is deprecated. This message will be suppressed on further calls in /home/aerocargo/public_html/lib/functions.php on line 165
ADDS - METARS form results

(1740 UTC 20 January 2021)
Data provider http://aviationweather.gov/metar/data/
 
METAR text: EDDM 201720Z 09004KT CAVOK 02/M01 Q1007 R26L/290095 NOSIG
Conditions at: EDDM (MUNICH-FLUGHAFEN, DE) observed 1720 UTC 20 January 2021
Temperature: 2.0°C (36°F)
Dewpoint: -1.0°C (30°F) [RH = 80%]
Pressure (altimeter): 29.73 inches Hg (1007.0 mb)
Winds: from the E (90 degrees) at 5 MPH (4 knots; 2.1 m/s)
Visibility: 6 or more miles (10+ km)
Ceiling: ceiling and visibility are OK
Clouds: unknown
Weather: no significant weather observed at this time

METAR text: EDDM 201650Z 09005KT CAVOK 02/M02 Q1007 R26L/290095 NOSIG
Conditions at: EDDM (MUNICH-FLUGHAFEN, DE) observed 1650 UTC 20 January 2021
Temperature: 2.0°C (36°F)
Dewpoint: -2.0°C (28°F) [RH = 75%]
Pressure (altimeter): 29.73 inches Hg (1007.0 mb)
Winds: from the E (90 degrees) at 6 MPH (5 knots; 2.6 m/s)
Visibility: 6 or more miles (10+ km)
Ceiling: ceiling and visibility are OK
Clouds: unknown
Weather: no significant weather observed at this time

Forecast for: EDDM (MUNICH-FLUGHAFEN, DE)
Text: TAF EDDM 201700Z 2018/2124 14004KT CAVOK
Forecast period: 1800 UTC 20 January 2021 to 0000 UTC 22 January 2021
Forecast type: FROM: standard forecast or significant change
Winds: from the SE (140 degrees) at 5 MPH (4 knots; 2.1 m/s)
Visibility: 6 or more miles (10+ km)
Ceiling: unknown
Clouds: missing
Weather: NSW  (no significant weather)